createdAt,value
2018-12-20T00:01:15.487Z,42.53
2018-12-20T00:03:43.938Z,40.07
2018-12-20T00:06:12.453Z,38.87
2018-12-20T00:08:40.884Z,40.30
2018-12-20T00:11:09.444Z,41.33
2018-12-20T00:13:38.032Z,39.03
2018-12-20T00:16:06.519Z,37.60
2018-12-20T00:18:35.321Z,38.43
2018-12-20T00:21:03.868Z,38.07
2018-12-20T00:23:32.334Z,41.80
2018-12-20T00:26:00.886Z,38.87
2018-12-20T00:28:29.408Z,37.80
2018-12-20T00:30:57.973Z,41.63
2018-12-20T00:33:26.886Z,40.53
2018-12-20T00:35:55.413Z,37.83
2018-12-20T00:38:23.879Z,39.43
2018-12-20T00:40:52.836Z,37.27
2018-12-20T00:43:21.386Z,40.30
2018-12-20T00:45:49.908Z,37.40
2018-12-20T00:48:18.441Z,38.30
2018-12-20T00:50:46.935Z,35.73
2018-12-20T00:53:15.776Z,35.70
2018-12-20T00:55:44.256Z,34.93
2018-12-20T00:58:12.813Z,35.87
2018-12-20T01:00:41.831Z,36.83
2018-12-20T01:03:10.460Z,36.70
2018-12-20T01:05:39.054Z,37.87
2018-12-20T01:08:07.644Z,34.67
2018-12-20T01:10:36.368Z,38.60
2018-12-20T01:13:04.947Z,36.00
2018-12-20T01:15:33.681Z,33.23
2018-12-20T01:18:02.159Z,35.40
2018-12-20T01:20:30.825Z,34.40
2018-12-20T01:22:59.598Z,36.07
2018-12-20T01:25:28.136Z,39.90
2018-12-20T01:27:57.538Z,34.90
2018-12-20T01:30:26.517Z,37.37
2018-12-20T01:32:55.264Z,36.13
2018-12-20T01:35:23.753Z,36.83
2018-12-20T01:37:52.422Z,37.63
2018-12-20T01:40:21.119Z,35.30
2018-12-20T01:42:50.869Z,36.57
2018-12-20T01:45:19.590Z,40.17
2018-12-20T01:47:48.436Z,38.83
2018-12-20T01:50:17.812Z,40.17
2018-12-20T01:52:46.242Z,42.40
2018-12-20T01:55:15.168Z,40.67
2018-12-20T01:57:43.955Z,38.63
2018-12-20T02:00:12.691Z,40.90
2018-12-20T02:02:41.254Z,39.37
2018-12-20T02:05:09.809Z,41.57
2018-12-20T02:07:38.795Z,39.97
2018-12-20T02:10:07.396Z,39.77
2018-12-20T02:12:36.091Z,40.03
2018-12-20T02:15:06.722Z,39.77
2018-12-20T02:17:35.605Z,37.20
2018-12-20T02:20:05.102Z,41.23
2018-12-20T02:22:34.035Z,38.93
2018-12-20T02:25:02.909Z,39.40
2018-12-20T02:27:31.407Z,41.53
2018-12-20T02:29:59.987Z,38.93
2018-12-20T02:32:28.467Z,38.00
2018-12-20T02:34:56.955Z,41.30
2018-12-20T02:37:25.393Z,41.60
2018-12-20T02:39:53.980Z,38.60
2018-12-20T02:42:22.485Z,41.53
2018-12-20T02:44:51.034Z,41.77
2018-12-20T02:47:22.098Z,42.03
2018-12-20T02:49:50.754Z,38.67
2018-12-20T02:52:19.240Z,42.50
2018-12-20T02:54:47.680Z,42.07
2018-12-20T02:57:16.192Z,39.87
2018-12-20T02:59:44.689Z,42.60
2018-12-20T03:02:13.244Z,44.57
2018-12-20T03:04:41.823Z,40.50
2018-12-20T03:07:10.535Z,43.37
2018-12-20T03:09:39.148Z,43.23
2018-12-20T03:12:08.168Z,40.57
2018-12-20T03:14:36.974Z,45.40
2018-12-20T03:17:07.319Z,40.13
2018-12-20T03:19:35.972Z,43.13
2018-12-20T03:22:04.690Z,41.33
2018-12-20T03:24:33.761Z,40.10
2018-12-20T03:27:02.483Z,41.50
2018-12-20T03:29:31.517Z,43.47
2018-12-20T03:32:00.181Z,44.73
2018-12-20T03:34:28.822Z,44.57
2018-12-20T03:36:57.575Z,45.33
2018-12-20T03:39:26.114Z,41.60
2018-12-20T03:41:54.588Z,45.60
2018-12-20T03:44:23.159Z,42.40
2018-12-20T03:46:51.721Z,41.43
2018-12-20T03:49:20.259Z,43.10
2018-12-20T03:51:49.206Z,43.33
2018-12-20T03:54:17.754Z,40.33
2018-12-20T03:56:46.485Z,43.03
2018-12-20T03:59:15.011Z,44.63
2018-12-20T04:01:43.621Z,46.37
2018-12-20T04:04:12.275Z,41.67
2018-12-20T04:06:40.755Z,44.07
2018-12-20T04:09:09.195Z,42.27
2018-12-20T04:11:37.967Z,45.87
2018-12-20T04:14:06.524Z,46.00
2018-12-20T04:16:35.218Z,43.83
2018-12-20T04:19:04.167Z,43.30
2018-12-20T04:21:32.808Z,45.13
2018-12-20T04:24:01.590Z,48.33
2018-12-20T04:26:30.324Z,46.43
2018-12-20T04:28:58.997Z,46.27
2018-12-20T04:31:27.645Z,43.07
2018-12-20T04:33:56.926Z,45.30
2018-12-20T04:36:25.860Z,46.63
2018-12-20T04:38:56.412Z,44.97
2018-12-20T04:41:25.962Z,45.73
2018-12-20T04:43:54.856Z,45.20
2018-12-20T04:46:23.745Z,44.63
2018-12-20T04:48:52.534Z,45.40
2018-12-20T04:51:21.131Z,45.83
2018-12-20T04:53:49.673Z,44.27
2018-12-20T04:56:18.636Z,42.20
2018-12-20T04:58:47.317Z,56.73
2018-12-20T05:01:15.932Z,59.30
2018-12-20T05:03:44.494Z,63.37
2018-12-20T05:06:13.001Z,58.43
2018-12-20T05:08:41.781Z,57.50
2018-12-20T05:11:10.315Z,59.20
2018-12-20T05:13:38.772Z,54.10
2018-12-20T05:16:07.224Z,56.13
2018-12-20T05:18:36.819Z,79.40
2018-12-20T05:21:05.673Z,49.47
2018-12-20T05:23:34.643Z,48.33
2018-12-20T05:26:03.375Z,47.43
2018-12-20T05:28:32.153Z,50.10
2018-12-20T05:31:00.772Z,46.37
2018-12-20T05:33:29.541Z,45.73
2018-12-20T05:35:58.012Z,46.70
2018-12-20T05:38:26.551Z,47.03
2018-12-20T05:40:55.768Z,59.10
2018-12-20T05:43:24.295Z,51.67
2018-12-20T05:45:53.127Z,46.77
2018-12-20T05:48:22.706Z,51.60
2018-12-20T05:50:51.268Z,48.67
2018-12-20T05:53:19.974Z,52.30
2018-12-20T05:55:48.782Z,49.03
2018-12-20T05:58:17.631Z,53.60
2018-12-20T06:00:46.627Z,51.33
2018-12-20T06:03:15.235Z,51.10
2018-12-20T06:05:43.757Z,49.33
2018-12-20T06:08:12.523Z,51.17
2018-12-20T06:10:41.222Z,47.40
2018-12-20T06:13:09.978Z,50.77
2018-12-20T06:15:39.131Z,49.53
2018-12-20T06:18:07.954Z,47.73
2018-12-20T06:20:36.720Z,48.07
2018-12-20T06:23:05.259Z,47.37
2018-12-20T06:25:34.211Z,49.53
2018-12-20T06:28:02.635Z,46.47
2018-12-20T06:30:31.110Z,52.20
2018-12-20T06:32:59.559Z,46.23
2018-12-20T06:35:29.719Z,52.80
2018-12-20T06:37:58.866Z,46.43
2018-12-20T06:40:27.522Z,49.13
2018-12-20T06:42:55.964Z,49.37
2018-12-20T06:45:24.447Z,48.17
2018-12-20T06:47:52.909Z,46.70
2018-12-20T06:50:21.335Z,118.93
2018-12-20T06:52:49.836Z,62.23
2018-12-20T06:55:19.062Z,54.27
2018-12-20T06:57:47.490Z,51.17
2018-12-20T07:00:15.965Z,51.10
2018-12-20T07:02:44.425Z,48.67
2018-12-20T07:05:12.836Z,50.53
2018-12-20T07:07:41.327Z,47.33
2018-12-20T07:10:09.748Z,48.97
2018-12-20T07:12:38.691Z,48.17
2018-12-20T07:15:10.613Z,51.33
2018-12-20T07:17:39.044Z,51.57
2018-12-20T07:20:07.811Z,52.37
2018-12-20T07:22:36.432Z,50.83
2018-12-20T07:25:06.695Z,52.27
2018-12-20T07:27:36.405Z,52.37
2018-12-20T07:30:09.715Z,53.20
2018-12-20T07:32:38.204Z,54.37
2018-12-20T07:35:07.580Z,52.73
2018-12-20T07:37:36.121Z,54.13
2018-12-20T07:40:07.478Z,55.50
2018-12-20T07:42:35.988Z,63.80
2018-12-20T07:45:05.701Z,144.13
2018-12-20T07:47:34.268Z,61.33
2018-12-20T07:50:02.854Z,54.37
2018-12-20T07:52:31.658Z,52.40
2018-12-20T07:55:00.374Z,47.13
2018-12-20T07:57:28.856Z,52.47
2018-12-20T07:59:58.092Z,54.40
2018-12-20T08:02:26.525Z,52.93
2018-12-20T08:04:55.031Z,52.20
2018-12-20T08:07:24.006Z,54.87
2018-12-20T08:09:52.434Z,53.80
2018-12-20T08:12:20.937Z,53.40
2018-12-20T08:14:49.491Z,53.33
2018-12-20T08:17:17.965Z,56.13
2018-12-20T08:19:46.480Z,56.20
2018-12-20T08:22:14.930Z,59.77
2018-12-20T08:24:43.636Z,54.30
2018-12-20T08:27:12.119Z,59.37
2018-12-20T08:29:40.845Z,63.63
2018-12-20T08:32:09.300Z,62.47
2018-12-20T08:34:37.862Z,61.63
2018-12-20T08:37:06.316Z,59.03
2018-12-20T08:39:34.752Z,61.13
2018-12-20T08:42:03.235Z,56.23
2018-12-20T08:44:31.956Z,64.83
2018-12-20T08:47:02.194Z,67.77
2018-12-20T08:49:30.741Z,60.13
2018-12-20T08:52:00.506Z,59.47
2018-12-20T08:54:28.955Z,63.63
2018-12-20T08:56:57.446Z,60.73
2018-12-20T08:59:25.896Z,62.33
2018-12-20T09:01:55.363Z,66.03
2018-12-20T09:04:24.047Z,67.57
2018-12-20T09:06:52.503Z,63.60
2018-12-20T09:09:21.144Z,67.83
2018-12-20T09:11:49.860Z,64.53
2018-12-20T09:14:18.305Z,63.23
2018-12-20T09:16:47.017Z,69.50
2018-12-20T09:19:15.502Z,64.83
2018-12-20T09:21:44.245Z,61.67
2018-12-20T09:24:12.697Z,64.27
2018-12-20T09:26:41.188Z,63.60
2018-12-20T09:29:09.632Z,67.77
2018-12-20T09:31:38.088Z,69.07
2018-12-20T09:34:06.603Z,62.10
2018-12-20T09:36:35.065Z,66.47
2018-12-20T09:39:07.132Z,68.77
2018-12-20T09:41:35.540Z,69.07
2018-12-20T09:44:04.310Z,69.03
2018-12-20T09:46:34.708Z,66.90
2018-12-20T09:49:03.421Z,68.37
2018-12-20T09:51:32.742Z,66.53
2018-12-20T09:54:01.374Z,66.57
2018-12-20T09:56:29.812Z,63.37
2018-12-20T09:58:58.272Z,66.37
2018-12-20T10:01:26.720Z,69.40
2018-12-20T10:03:55.945Z,63.70
2018-12-20T10:06:24.901Z,66.50
2018-12-20T10:08:53.427Z,143.30
2018-12-20T10:11:22.076Z,69.80
2018-12-20T10:13:51.646Z,70.60
2018-12-20T10:16:20.136Z,76.33
2018-12-20T10:18:48.552Z,74.47
2018-12-20T10:21:16.987Z,67.97
2018-12-20T10:23:45.528Z,72.73
2018-12-20T10:26:13.984Z,70.00
2018-12-20T10:28:42.432Z,69.27
2018-12-20T10:31:10.918Z,72.37
2018-12-20T10:33:40.564Z,74.23
2018-12-20T10:36:09.065Z,77.73
2018-12-20T10:38:37.569Z,71.67
2018-12-20T10:41:06.245Z,70.53
2018-12-20T10:43:34.660Z,70.73
2018-12-20T10:46:03.156Z,69.60
2018-12-20T10:48:31.851Z,74.37
2018-12-20T10:51:00.320Z,70.53
2018-12-20T10:53:28.825Z,71.37
2018-12-20T10:55:57.273Z,74.47
2018-12-20T10:58:25.717Z,72.13
2018-12-20T11:00:59.775Z,71.97
2018-12-20T11:03:34.504Z,65.87
2018-12-20T11:06:05.775Z,74.90
2018-12-20T11:08:36.300Z,77.30
2018-12-20T11:11:09.319Z,71.47
2018-12-20T11:13:37.748Z,135.40
2018-12-20T11:16:06.365Z,85.23
2018-12-20T11:18:35.123Z,65.80
2018-12-20T11:21:03.568Z,66.70
2018-12-20T11:23:32.013Z,67.90
2018-12-20T11:26:02.148Z,63.03
2018-12-20T11:28:30.613Z,66.67
2018-12-20T11:30:59.079Z,63.33
2018-12-20T11:33:28.072Z,65.37
2018-12-20T11:35:56.556Z,67.60
2018-12-20T11:38:24.990Z,75.17
2018-12-20T11:40:54.646Z,64.20
2018-12-20T11:43:23.331Z,67.47
2018-12-20T11:45:51.774Z,67.70
2018-12-20T11:48:20.270Z,63.50
2018-12-20T11:50:48.708Z,73.27
2018-12-20T11:53:17.178Z,71.10
2018-12-20T11:55:45.662Z,72.03
2018-12-20T11:58:14.091Z,68.33
2018-12-20T12:00:42.775Z,69.83
2018-12-20T12:03:11.268Z,67.67
2018-12-20T12:05:40.050Z,67.13
2018-12-20T12:08:08.499Z,68.70
2018-12-20T12:10:37.009Z,67.70
2018-12-20T12:13:05.447Z,67.00
2018-12-20T12:15:33.907Z,66.60
2018-12-20T12:18:02.430Z,135.47
2018-12-20T12:20:30.904Z,73.00
2018-12-20T12:22:59.352Z,64.60
2018-12-20T12:25:28.020Z,70.20
2018-12-20T12:27:56.472Z,73.20
2018-12-20T12:30:25.463Z,72.40
2018-12-20T12:32:53.960Z,69.63
2018-12-20T12:35:22.464Z,69.33
2018-12-20T12:37:51.185Z,71.73
2018-12-20T12:40:19.659Z,69.73
2018-12-20T12:42:48.108Z,71.17
2018-12-20T12:45:16.526Z,69.63
2018-12-20T12:47:50.515Z,70.20
2018-12-20T12:50:19.114Z,67.90
2018-12-20T12:52:47.570Z,70.10
2018-12-20T12:55:16.080Z,73.17
2018-12-20T12:57:44.501Z,74.40
2018-12-20T13:00:15.244Z,70.90
2018-12-20T13:02:43.831Z,73.63
2018-12-20T13:05:12.540Z,77.43
2018-12-20T13:07:41.199Z,76.27
2018-12-20T13:10:09.663Z,79.47
2018-12-20T13:12:38.112Z,77.07
2018-12-20T13:15:09.961Z,78.60
2018-12-20T13:17:38.438Z,79.90
2018-12-20T13:20:08.932Z,81.30
2018-12-20T13:22:37.353Z,76.63
2018-12-20T13:25:06.383Z,82.00
2018-12-20T13:27:34.848Z,77.20
2018-12-20T13:30:06.199Z,80.53
2018-12-20T13:32:34.703Z,83.00
2018-12-20T13:35:03.204Z,83.27
2018-12-20T13:37:31.903Z,99.80
2018-12-20T13:40:00.580Z,91.43
2018-12-20T13:42:28.968Z,75.17
2018-12-20T13:44:57.420Z,79.90
2018-12-20T13:47:25.868Z,80.70
2018-12-20T13:49:54.326Z,75.20
2018-12-20T13:52:22.821Z,76.53
2018-12-20T13:54:51.266Z,78.57
2018-12-20T13:57:19.668Z,79.77
2018-12-20T13:59:48.180Z,77.43
2018-12-20T14:02:16.660Z,78.90
2018-12-20T14:04:45.207Z,81.97
2018-12-20T14:07:13.689Z,76.93
2018-12-20T14:09:42.130Z,79.03
2018-12-20T14:12:10.735Z,76.63
2018-12-20T14:14:39.200Z,72.70
2018-12-20T14:17:07.684Z,77.30
2018-12-20T14:19:36.140Z,77.87
2018-12-20T14:22:04.636Z,161.60
2018-12-20T14:24:33.090Z,94.37
2018-12-20T14:27:01.528Z,78.13
2018-12-20T14:29:30.016Z,79.43
2018-12-20T14:31:58.448Z,76.73
2018-12-20T14:34:26.934Z,79.77
2018-12-20T14:36:55.423Z,75.23
2018-12-20T14:39:23.879Z,81.17
2018-12-20T14:41:52.334Z,82.03
2018-12-20T14:44:20.832Z,77.67
2018-12-20T14:46:49.287Z,76.33
2018-12-20T14:49:17.736Z,72.17
2018-12-20T14:51:46.211Z,81.53
2018-12-20T14:54:14.839Z,81.03
2018-12-20T14:56:43.339Z,79.03
2018-12-20T14:59:11.826Z,81.17
2018-12-20T15:01:40.277Z,81.17
2018-12-20T15:04:08.733Z,84.03
2018-12-20T15:06:37.379Z,84.23
2018-12-20T15:09:07.077Z,84.37
2018-12-20T15:11:35.564Z,75.03
2018-12-20T15:14:04.659Z,79.17
2018-12-20T15:16:33.079Z,70.00
2018-12-20T15:19:01.533Z,71.73
2018-12-20T15:21:30.016Z,71.30
2018-12-20T15:23:58.467Z,77.20
2018-12-20T15:26:27.146Z,78.20
2018-12-20T15:28:55.951Z,73.00
2018-12-20T15:31:25.149Z,74.60
2018-12-20T15:33:53.606Z,74.70
2018-12-20T15:36:22.308Z,72.93
2018-12-20T15:38:50.767Z,73.53
2018-12-20T15:43:53.107Z,72.70
2018-12-20T15:46:22.317Z,74.00
2018-12-20T15:48:56.392Z,78.63
2018-12-20T15:51:25.545Z,80.13
2018-12-20T15:53:54.892Z,78.23
2018-12-20T15:56:23.369Z,79.20
2018-12-20T15:58:52.916Z,78.13
2018-12-20T16:01:21.440Z,172.70
2018-12-20T16:03:50.308Z,84.13
2018-12-20T16:06:18.887Z,79.10
2018-12-20T16:08:49.292Z,79.40
2018-12-20T16:11:18.140Z,83.23
2018-12-20T16:13:46.612Z,84.87
2018-12-20T16:16:15.176Z,82.00
2018-12-20T16:18:43.705Z,77.87
2018-12-20T16:23:45.872Z,82.57
2018-12-20T16:26:15.116Z,83.40
2018-12-20T16:28:43.587Z,80.47
2018-12-20T16:31:12.160Z,83.10
2018-12-20T16:33:40.831Z,87.57
2018-12-20T16:36:09.536Z,86.17
2018-12-20T16:38:39.077Z,95.53
2018-12-20T16:41:07.619Z,88.27
2018-12-20T16:43:36.747Z,84.80
2018-12-20T16:46:06.495Z,87.87
2018-12-20T16:48:36.196Z,84.60
2018-12-20T16:51:05.220Z,87.67
2018-12-20T16:53:39.774Z,92.07
2018-12-20T16:56:09.576Z,88.43
2018-12-20T16:58:38.072Z,93.20
2018-12-20T17:01:07.096Z,98.63
2018-12-20T17:03:38.759Z,92.80
2018-12-20T17:06:07.316Z,86.50
2018-12-20T17:08:35.959Z,101.17
2018-12-20T17:11:05.058Z,94.13
2018-12-20T17:13:35.163Z,92.77
2018-12-20T17:16:03.710Z,95.00
2018-12-20T17:18:32.410Z,101.47
2018-12-20T17:21:04.043Z,101.57
2018-12-20T17:23:35.738Z,93.27
2018-12-20T17:26:04.914Z,94.73
2018-12-20T17:28:33.951Z,89.87
2018-12-20T17:31:02.962Z,91.73
2018-12-20T17:33:31.710Z,96.27
2018-12-20T17:36:00.713Z,92.57
2018-12-20T17:38:30.035Z,88.00
2018-12-20T17:40:58.685Z,88.47
2018-12-20T17:43:27.526Z,95.30
2018-12-20T17:45:56.388Z,92.93
2018-12-20T17:48:29.066Z,95.37
2018-12-20T17:50:56.574Z,93.07
2018-12-20T17:53:26.133Z,92.60
2018-12-20T17:55:55.890Z,92.60
2018-12-20T17:58:25.132Z,90.43
2018-12-20T18:00:55.602Z,96.50
2018-12-20T18:03:24.970Z,94.07
2018-12-20T18:05:54.271Z,89.07
2018-12-20T18:08:22.942Z,97.57
2018-12-20T18:10:51.657Z,101.43
2018-12-20T18:13:20.300Z,100.63
2018-12-20T18:15:49.264Z,96.77
2018-12-20T18:18:19.337Z,99.23
2018-12-20T18:20:48.665Z,102.33
2018-12-20T18:23:18.179Z,94.47
2018-12-20T18:25:46.929Z,96.17
2018-12-20T18:28:16.562Z,100.27
2018-12-20T18:30:45.397Z,103.30
2018-12-20T18:33:14.055Z,98.23
2018-12-20T18:35:42.728Z,101.53
2018-12-20T18:38:11.286Z,97.77
2018-12-20T18:40:40.717Z,98.10
2018-12-20T18:43:09.375Z,92.87
2018-12-20T18:45:39.059Z,95.40
2018-12-20T18:48:07.721Z,97.50
2018-12-20T18:50:36.442Z,98.10
2018-12-20T18:53:05.843Z,100.10
2018-12-20T18:55:34.567Z,93.63
2018-12-20T18:58:03.147Z,101.47
2018-12-20T19:00:31.926Z,196.70
2018-12-20T19:03:00.496Z,107.60
2018-12-20T19:05:29.032Z,98.77
2018-12-20T19:07:58.551Z,95.30
2018-12-20T19:10:27.247Z,96.77
2018-12-20T19:12:56.040Z,98.97
2018-12-20T19:15:24.859Z,92.87
2018-12-20T19:17:54.707Z,96.20
2018-12-20T19:20:23.348Z,98.37
2018-12-20T19:22:55.070Z,97.23
2018-12-20T19:25:23.708Z,95.80
2018-12-20T19:27:52.431Z,92.90
2018-12-20T19:30:22.218Z,95.37
2018-12-20T19:32:51.357Z,97.60
2018-12-20T19:35:20.036Z,104.13
2018-12-20T19:37:49.137Z,100.07
2018-12-20T19:42:51.341Z,93.30
2018-12-20T19:45:24.365Z,95.13
2018-12-20T19:47:53.028Z,122.03
2018-12-20T19:50:22.364Z,94.77
2018-12-20T19:52:52.128Z,96.03
2018-12-20T19:55:21.095Z,95.47
2018-12-20T19:57:50.272Z,91.30
2018-12-20T20:00:19.287Z,93.97
2018-12-20T20:02:49.089Z,92.23
2018-12-20T20:07:53.390Z,89.00
2018-12-20T20:10:22.838Z,96.53
2018-12-20T20:12:52.799Z,96.83
2018-12-20T20:15:21.569Z,98.03
2018-12-20T20:17:53.593Z,97.17
2018-12-20T20:20:23.062Z,99.47
2018-12-20T20:22:52.111Z,93.67
2018-12-20T20:25:20.806Z,88.67
2018-12-20T20:27:50.476Z,88.47
2018-12-20T20:30:19.068Z,97.13
2018-12-20T20:32:48.017Z,92.17
2018-12-20T20:35:19.507Z,94.43
2018-12-20T20:37:48.186Z,97.80
2018-12-20T20:40:16.955Z,92.33
2018-12-20T20:42:48.133Z,95.90
2018-12-20T20:45:16.923Z,103.40
2018-12-20T20:47:45.547Z,104.70
2018-12-20T20:50:22.400Z,99.83
2018-12-20T20:52:46.978Z,100.97
2018-12-20T20:55:15.677Z,102.40
2018-12-20T20:57:44.485Z,103.43
2018-12-20T21:00:13.321Z,103.60
2018-12-20T21:02:42.350Z,109.37
2018-12-20T21:05:10.984Z,95.10
2018-12-20T21:07:39.605Z,107.43
2018-12-20T21:10:10.064Z,108.57
2018-12-20T21:12:39.329Z,112.00
2018-12-20T21:15:09.478Z,112.87
2018-12-20T21:17:38.076Z,107.40
2018-12-20T21:20:08.441Z,109.23
2018-12-20T21:22:37.069Z,109.03
2018-12-20T21:25:05.881Z,109.60
2018-12-20T21:27:34.711Z,104.97
2018-12-20T21:30:04.109Z,102.20
2018-12-20T21:32:32.715Z,108.97
2018-12-20T21:35:01.285Z,103.03
2018-12-20T21:37:29.961Z,104.20
2018-12-20T21:39:58.566Z,101.40
2018-12-20T21:42:27.097Z,103.60
2018-12-20T21:44:55.614Z,111.77
2018-12-20T21:47:24.216Z,107.63
2018-12-20T21:49:52.740Z,113.83
2018-12-20T21:52:21.253Z,107.17
2018-12-20T21:54:49.862Z,117.93
2018-12-20T21:57:18.368Z,124.50
2018-12-20T21:59:46.918Z,123.07
2018-12-20T22:02:15.452Z,124.83
2018-12-20T22:04:44.326Z,126.73
2018-12-20T22:07:12.831Z,115.87
2018-12-20T22:09:41.356Z,114.00
2018-12-20T22:12:09.805Z,115.20
2018-12-20T22:14:38.287Z,121.33
2018-12-20T22:17:06.763Z,119.73
2018-12-20T22:19:35.202Z,117.93
2018-12-20T22:22:03.640Z,118.53
2018-12-20T22:24:32.146Z,120.37
2018-12-20T22:27:00.617Z,125.47
2018-12-20T22:29:29.707Z,118.83
2018-12-20T22:31:58.165Z,111.03
2018-12-20T22:34:26.601Z,111.03
2018-12-20T22:36:55.046Z,112.37
2018-12-20T22:39:23.579Z,114.40
2018-12-20T22:41:52.023Z,114.90
2018-12-20T22:44:20.494Z,123.97
2018-12-20T22:46:49.190Z,114.57
2018-12-20T22:49:17.685Z,109.83
2018-12-20T22:51:46.133Z,117.17
2018-12-20T22:54:14.619Z,116.47
2018-12-20T22:56:43.076Z,113.73
2018-12-20T22:59:11.556Z,117.97
2018-12-20T23:01:40.036Z,110.73
2018-12-20T23:04:09.121Z,128.83
2018-12-20T23:06:37.554Z,115.23
2018-12-20T23:09:06.701Z,145.53
2018-12-20T23:11:35.643Z,141.70
2018-12-20T23:14:04.176Z,178.20
2018-12-20T23:16:32.686Z,141.80
2018-12-20T23:19:01.416Z,146.93
2018-12-20T23:21:29.886Z,145.27
2018-12-20T23:23:58.372Z,194.43
2018-12-20T23:26:26.856Z,149.40
2018-12-20T23:28:55.546Z,148.53
2018-12-20T23:31:24.017Z,142.17
2018-12-20T23:33:52.476Z,243.47
2018-12-20T23:36:21.175Z,323.43
2018-12-20T23:38:49.698Z,159.93
2018-12-20T23:41:18.134Z,141.67
2018-12-20T23:43:46.889Z,137.73
2018-12-20T23:46:15.409Z,111.63
2018-12-20T23:48:43.891Z,115.77
2018-12-20T23:51:13.761Z,229.60
2018-12-20T23:53:48.600Z,171.70
2018-12-20T23:56:17.287Z,418.17
2018-12-20T23:58:45.737Z,168.67
